sensor_id;sensor_type;location;lat;lon;timestamp;P1;durP1;ratioP1;P2;durP2;ratioP2
68614;SDS011;55593;51.994;5.882;2022-12-26T00:01:21;324.67;;;24.77;;
68614;SDS011;55593;51.994;5.882;2022-12-26T00:03:51;598.72;;;32.95;;
68614;SDS011;55593;51.994;5.882;2022-12-26T00:06:24;309.48;;;25.45;;
68614;SDS011;55593;51.994;5.882;2022-12-26T00:08:54;652.80;;;36.25;;
68614;SDS011;55593;51.994;5.882;2022-12-26T00:11:23;401.35;;;28.45;;
68614;SDS011;55593;51.994;5.882;2022-12-26T00:13:53;110.28;;;21.80;;
68614;SDS011;55593;51.994;5.882;2022-12-26T00:16:24;435.25;;;29.30;;
68614;SDS011;55593;51.994;5.882;2022-12-26T00:18:54;359.63;;;27.77;;
68614;SDS011;55593;51.994;5.882;2022-12-26T00:21:25;597.88;;;33.85;;
68614;SDS011;55593;51.994;5.882;2022-12-26T00:23:55;203.60;;;23.77;;
68614;SDS011;55593;51.994;5.882;2022-12-26T00:26:26;91.55;;;21.05;;
68614;SDS011;55593;51.994;5.882;2022-12-26T00:28:56;497.13;;;34.38;;
68614;SDS011;55593;51.994;5.882;2022-12-26T00:31:26;478.20;;;32.55;;
68614;SDS011;55593;51.994;5.882;2022-12-26T00:33:57;275.52;;;27.65;;
68614;SDS011;55593;51.994;5.882;2022-12-26T00:36:29;174.15;;;26.13;;
68614;SDS011;55593;51.994;5.882;2022-12-26T00:39:00;237.10;;;26.45;;
68614;SDS011;55593;51.994;5.882;2022-12-26T00:41:30;341.92;;;31.42;;
68614;SDS011;55593;51.994;5.882;2022-12-26T00:43:59;169.02;;;27.58;;
68614;SDS011;55593;51.994;5.882;2022-12-26T00:46:28;291.00;;;31.67;;
68614;SDS011;55593;51.994;5.882;2022-12-26T00:48:58;354.27;;;34.13;;
68614;SDS011;55593;51.994;5.882;2022-12-26T00:51:30;229.63;;;29.33;;
68614;SDS011;55593;51.994;5.882;2022-12-26T00:53:59;211.40;;;30.88;;
68614;SDS011;55593;51.994;5.882;2022-12-26T00:56:28;170.75;;;28.88;;
68614;SDS011;55593;51.994;5.882;2022-12-26T00:58:57;442.50;;;35.70;;
68614;SDS011;55593;51.994;5.882;2022-12-26T01:01:26;640.50;;;42.22;;
68614;SDS011;55593;51.994;5.882;2022-12-26T01:03:57;305.60;;;31.02;;
68614;SDS011;55593;51.994;5.882;2022-12-26T01:06:26;213.77;;;29.75;;
68614;SDS011;55593;51.994;5.882;2022-12-26T01:08:58;112.03;;;29.88;;
68614;SDS011;55593;51.994;5.882;2022-12-26T01:11:27;84.30;;;29.92;;
68614;SDS011;55593;51.994;5.882;2022-12-26T01:14:09;99.25;;;31.08;;
68614;SDS011;55593;51.994;5.882;2022-12-26T01:16:40;61.80;;;29.27;;
68614;SDS011;55593;51.994;5.882;2022-12-26T01:19:11;87.57;;;30.95;;
68614;SDS011;55593;51.994;5.882;2022-12-26T01:21:40;75.43;;;31.33;;
68614;SDS011;55593;51.994;5.882;2022-12-26T01:24:12;117.05;;;33.47;;
68614;SDS011;55593;51.994;5.882;2022-12-26T01:26:41;80.95;;;31.52;;
68614;SDS011;55593;51.994;5.882;2022-12-26T01:29:11;68.15;;;30.08;;
68614;SDS011;55593;51.994;5.882;2022-12-26T01:31:40;61.75;;;28.95;;
68614;SDS011;55593;51.994;5.882;2022-12-26T01:34:09;78.55;;;29.75;;
68614;SDS011;55593;51.994;5.882;2022-12-26T01:36:38;66.93;;;28.42;;
68614;SDS011;55593;51.994;5.882;2022-12-26T01:39:08;85.18;;;28.98;;
68614;SDS011;55593;51.994;5.882;2022-12-26T01:41:39;56.53;;;27.60;;
68614;SDS011;55593;51.994;5.882;2022-12-26T01:47:07;67.95;;;27.77;;
68614;SDS011;55593;51.994;5.882;2022-12-26T01:49:38;57.15;;;26.30;;
68614;SDS011;55593;51.994;5.882;2022-12-26T01:52:11;61.55;;;27.50;;
68614;SDS011;55593;51.994;5.882;2022-12-26T01:54:43;50.00;;;25.13;;
68614;SDS011;55593;51.994;5.882;2022-12-26T01:57:18;52.35;;;26.05;;
68614;SDS011;55593;51.994;5.882;2022-12-26T01:59:49;50.60;;;26.40;;
68614;SDS011;55593;51.994;5.882;2022-12-26T02:02:19;60.05;;;27.33;;
68614;SDS011;55593;51.994;5.882;2022-12-26T02:04:49;50.05;;;26.45;;
68614;SDS011;55593;51.994;5.882;2022-12-26T02:07:31;53.42;;;26.85;;
68614;SDS011;55593;51.994;5.882;2022-12-26T02:10:02;54.17;;;26.83;;
68614;SDS011;55593;51.994;5.882;2022-12-26T02:12:36;52.10;;;26.63;;
68614;SDS011;55593;51.994;5.882;2022-12-26T02:15:06;51.70;;;26.90;;
68614;SDS011;55593;51.994;5.882;2022-12-26T02:17:37;58.22;;;27.45;;
68614;SDS011;55593;51.994;5.882;2022-12-26T02:20:09;51.75;;;25.88;;
68614;SDS011;55593;51.994;5.882;2022-12-26T02:26:09;63.70;;;29.20;;
68614;SDS011;55593;51.994;5.882;2022-12-26T02:29:08;46.35;;;26.05;;
68614;SDS011;55593;51.994;5.882;2022-12-26T02:32:02;52.65;;;26.63;;
68614;SDS011;55593;51.994;5.882;2022-12-26T02:34:37;50.78;;;26.55;;
68614;SDS011;55593;51.994;5.882;2022-12-26T02:39:49;54.85;;;27.10;;
68614;SDS011;55593;51.994;5.882;2022-12-26T02:42:26;50.53;;;26.70;;
68614;SDS011;55593;51.994;5.882;2022-12-26T02:45:01;49.38;;;26.83;;
68614;SDS011;55593;51.994;5.882;2022-12-26T02:47:51;47.60;;;26.80;;
68614;SDS011;55593;51.994;5.882;2022-12-26T02:50:23;56.83;;;28.48;;
68614;SDS011;55593;51.994;5.882;2022-12-26T02:53:24;61.53;;;28.70;;
68614;SDS011;55593;51.994;5.882;2022-12-26T02:56:12;46.58;;;26.35;;
68614;SDS011;55593;51.994;5.882;2022-12-26T02:58:57;44.33;;;25.92;;
68614;SDS011;55593;51.994;5.882;2022-12-26T03:01:42;59.90;;;31.17;;
68614;SDS011;55593;51.994;5.882;2022-12-26T03:04:28;44.83;;;27.30;;
68614;SDS011;55593;51.994;5.882;2022-12-26T03:07:14;53.72;;;28.90;;
68614;SDS011;55593;51.994;5.882;2022-12-26T03:10:03;51.95;;;29.98;;
68614;SDS011;55593;51.994;5.882;2022-12-26T03:12:48;56.05;;;30.17;;
68614;SDS011;55593;51.994;5.882;2022-12-26T03:15:32;47.58;;;29.25;;
68614;SDS011;55593;51.994;5.882;2022-12-26T03:18:22;44.88;;;28.13;;
68614;SDS011;55593;51.994;5.882;2022-12-26T03:20:52;44.65;;;28.50;;
68614;SDS011;55593;51.994;5.882;2022-12-26T03:23:22;47.17;;;28.27;;
68614;SDS011;55593;51.994;5.882;2022-12-26T03:25:53;45.08;;;28.77;;
68614;SDS011;55593;51.994;5.882;2022-12-26T03:28:36;45.13;;;27.73;;
68614;SDS011;55593;51.994;5.882;2022-12-26T03:31:06;40.95;;;26.27;;
68614;SDS011;55593;51.994;5.882;2022-12-26T03:33:34;41.53;;;26.60;;
68614;SDS011;55593;51.994;5.882;2022-12-26T03:36:21;42.08;;;28.60;;
68614;SDS011;55593;51.994;5.882;2022-12-26T03:38:59;61.28;;;29.05;;
68614;SDS011;55593;51.994;5.882;2022-12-26T03:41:35;42.83;;;25.70;;
68614;SDS011;55593;51.994;5.882;2022-12-26T03:44:23;43.58;;;28.15;;
68614;SDS011;55593;51.994;5.882;2022-12-26T03:47:12;40.15;;;27.90;;
68614;SDS011;55593;51.994;5.882;2022-12-26T03:49:59;47.65;;;29.48;;
68614;SDS011;55593;51.994;5.882;2022-12-26T03:52:47;46.22;;;28.25;;
68614;SDS011;55593;51.994;5.882;2022-12-26T03:55:35;57.05;;;32.75;;
68614;SDS011;55593;51.994;5.882;2022-12-26T03:58:21;44.97;;;29.38;;
68614;SDS011;55593;51.994;5.882;2022-12-26T04:01:07;46.42;;;29.58;;
68614;SDS011;55593;51.994;5.882;2022-12-26T04:03:50;49.92;;;31.60;;
68614;SDS011;55593;51.994;5.882;2022-12-26T04:06:35;45.10;;;29.05;;
68614;SDS011;55593;51.994;5.882;2022-12-26T04:09:25;46.67;;;31.20;;
68614;SDS011;55593;51.994;5.882;2022-12-26T04:12:17;54.22;;;32.95;;
68614;SDS011;55593;51.994;5.882;2022-12-26T04:15:02;54.63;;;34.95;;
68614;SDS011;55593;51.994;5.882;2022-12-26T04:17:48;52.63;;;33.85;;
68614;SDS011;55593;51.994;5.882;2022-12-26T04:20:34;49.88;;;33.88;;
68614;SDS011;55593;51.994;5.882;2022-12-26T04:25:53;49.88;;;32.92;;
68614;SDS011;55593;51.994;5.882;2022-12-26T04:28:39;52.08;;;34.80;;
68614;SDS011;55593;51.994;5.882;2022-12-26T04:31:22;52.75;;;32.17;;
68614;SDS011;55593;51.994;5.882;2022-12-26T04:34:08;55.35;;;34.25;;
68614;SDS011;55593;51.994;5.882;2022-12-26T04:36:54;52.78;;;34.80;;
68614;SDS011;55593;51.994;5.882;2022-12-26T04:39:37;50.58;;;32.65;;
68614;SDS011;55593;51.994;5.882;2022-12-26T04:42:23;49.13;;;33.03;;
68614;SDS011;55593;51.994;5.882;2022-12-26T04:45:05;52.15;;;33.63;;
68614;SDS011;55593;51.994;5.882;2022-12-26T04:47:35;50.95;;;33.72;;
68614;SDS011;55593;51.994;5.882;2022-12-26T04:50:25;52.22;;;33.75;;
68614;SDS011;55593;51.994;5.882;2022-12-26T04:52:51;50.13;;;33.25;;
68614;SDS011;55593;51.994;5.882;2022-12-26T04:55:26;54.38;;;34.25;;
68614;SDS011;55593;51.994;5.882;2022-12-26T04:57:59;58.00;;;35.38;;
68614;SDS011;55593;51.994;5.882;2022-12-26T05:00:28;45.78;;;31.60;;
68614;SDS011;55593;51.994;5.882;2022-12-26T05:02:57;46.55;;;32.35;;
68614;SDS011;55593;51.994;5.882;2022-12-26T05:05:39;45.28;;;31.10;;
68614;SDS011;55593;51.994;5.882;2022-12-26T05:08:23;42.17;;;30.20;;
68614;SDS011;55593;51.994;5.882;2022-12-26T05:11:06;40.10;;;28.30;;
68614;SDS011;55593;51.994;5.882;2022-12-26T05:13:37;35.53;;;26.65;;
68614;SDS011;55593;51.994;5.882;2022-12-26T05:16:07;39.15;;;27.17;;
68614;SDS011;55593;51.994;5.882;2022-12-26T05:18:48;31.15;;;24.17;;
68614;SDS011;55593;51.994;5.882;2022-12-26T05:21:30;32.00;;;25.15;;
68614;SDS011;55593;51.994;5.882;2022-12-26T05:24:12;30.33;;;24.13;;
68614;SDS011;55593;51.994;5.882;2022-12-26T05:26:53;28.90;;;22.30;;
68614;SDS011;55593;51.994;5.882;2022-12-26T05:29:37;29.30;;;22.80;;
68614;SDS011;55593;51.994;5.882;2022-12-26T05:32:07;32.30;;;22.83;;
68614;SDS011;55593;51.994;5.882;2022-12-26T05:34:36;28.42;;;21.90;;
68614;SDS011;55593;51.994;5.882;2022-12-26T05:37:02;27.80;;;21.73;;
68614;SDS011;55593;51.994;5.882;2022-12-26T05:39:31;23.15;;;18.83;;
68614;SDS011;55593;51.994;5.882;2022-12-26T05:42:01;28.02;;;19.88;;
68614;SDS011;55593;51.994;5.882;2022-12-26T05:44:30;25.20;;;19.27;;
68614;SDS011;55593;51.994;5.882;2022-12-26T05:47:01;24.40;;;18.00;;
68614;SDS011;55593;51.994;5.882;2022-12-26T05:49:31;23.95;;;16.60;;
68614;SDS011;55593;51.994;5.882;2022-12-26T05:52:00;19.90;;;15.70;;
68614;SDS011;55593;51.994;5.882;2022-12-26T05:54:29;18.83;;;14.15;;
68614;SDS011;55593;51.994;5.882;2022-12-26T05:56:58;18.90;;;13.35;;
68614;SDS011;55593;51.994;5.882;2022-12-26T05:59:28;16.77;;;13.43;;
68614;SDS011;55593;51.994;5.882;2022-12-26T06:01:58;17.58;;;13.60;;
68614;SDS011;55593;51.994;5.882;2022-12-26T06:04:30;16.65;;;12.70;;
68614;SDS011;55593;51.994;5.882;2022-12-26T06:07:01;15.57;;;11.63;;
68614;SDS011;55593;51.994;5.882;2022-12-26T06:09:30;15.85;;;11.82;;
68614;SDS011;55593;51.994;5.882;2022-12-26T06:11:59;17.58;;;12.15;;
68614;SDS011;55593;51.994;5.882;2022-12-26T06:14:28;14.18;;;11.45;;
68614;SDS011;55593;51.994;5.882;2022-12-26T06:16:57;18.27;;;10.75;;
68614;SDS011;55593;51.994;5.882;2022-12-26T06:19:27;17.17;;;10.35;;
68614;SDS011;55593;51.994;5.882;2022-12-26T06:21:59;15.75;;;10.30;;
68614;SDS011;55593;51.994;5.882;2022-12-26T06:24:28;14.07;;;9.80;;
68614;SDS011;55593;51.994;5.882;2022-12-26T06:26:57;14.88;;;9.73;;
68614;SDS011;55593;51.994;5.882;2022-12-26T06:29:27;14.25;;;10.48;;
68614;SDS011;55593;51.994;5.882;2022-12-26T06:31:56;15.68;;;9.70;;
68614;SDS011;55593;51.994;5.882;2022-12-26T06:34:25;15.90;;;9.98;;
68614;SDS011;55593;51.994;5.882;2022-12-26T06:36:57;13.25;;;9.70;;
68614;SDS011;55593;51.994;5.882;2022-12-26T06:39:26;15.80;;;10.25;;
68614;SDS011;55593;51.994;5.882;2022-12-26T06:41:55;18.02;;;10.88;;
68614;SDS011;55593;51.994;5.882;2022-12-26T06:44:24;13.85;;;9.60;;
68614;SDS011;55593;51.994;5.882;2022-12-26T06:46:54;13.32;;;9.55;;
68614;SDS011;55593;51.994;5.882;2022-12-26T06:49:23;13.20;;;9.73;;
68614;SDS011;55593;51.994;5.882;2022-12-26T06:51:52;14.32;;;9.77;;
68614;SDS011;55593;51.994;5.882;2022-12-26T06:54:25;13.73;;;10.05;;
68614;SDS011;55593;51.994;5.882;2022-12-26T06:56:54;12.07;;;8.93;;
68614;SDS011;55593;51.994;5.882;2022-12-26T06:59:23;13.70;;;10.20;;
68614;SDS011;55593;51.994;5.882;2022-12-26T07:01:52;14.95;;;9.63;;
68614;SDS011;55593;51.994;5.882;2022-12-26T07:04:22;11.48;;;9.38;;
68614;SDS011;55593;51.994;5.882;2022-12-26T07:06:51;14.43;;;10.55;;
68614;SDS011;55593;51.994;5.882;2022-12-26T07:09:20;14.25;;;10.20;;
68614;SDS011;55593;51.994;5.882;2022-12-26T07:11:52;16.38;;;9.32;;
68614;SDS011;55593;51.994;5.882;2022-12-26T07:14:21;13.43;;;10.50;;
68614;SDS011;55593;51.994;5.882;2022-12-26T07:16:50;20.13;;;10.77;;
68614;SDS011;55593;51.994;5.882;2022-12-26T07:19:19;17.13;;;11.57;;
68614;SDS011;55593;51.994;5.882;2022-12-26T07:21:48;13.85;;;10.90;;
68614;SDS011;55593;51.994;5.882;2022-12-26T07:24:18;15.73;;;11.57;;
68614;SDS011;55593;51.994;5.882;2022-12-26T07:26:48;15.10;;;11.30;;
68614;SDS011;55593;51.994;5.882;2022-12-26T07:29:20;17.80;;;11.07;;
68614;SDS011;55593;51.994;5.882;2022-12-26T07:31:49;18.35;;;12.25;;
68614;SDS011;55593;51.994;5.882;2022-12-26T07:34:18;16.85;;;11.23;;
68614;SDS011;55593;51.994;5.882;2022-12-26T07:36:48;17.10;;;11.55;;
68614;SDS011;55593;51.994;5.882;2022-12-26T07:39:17;20.55;;;12.07;;
68614;SDS011;55593;51.994;5.882;2022-12-26T07:41:47;18.42;;;12.07;;
68614;SDS011;55593;51.994;5.882;2022-12-26T07:44:29;14.13;;;10.75;;
68614;SDS011;55593;51.994;5.882;2022-12-26T07:47:00;15.73;;;11.15;;
68614;SDS011;55593;51.994;5.882;2022-12-26T07:49:29;20.42;;;12.13;;
68614;SDS011;55593;51.994;5.882;2022-12-26T07:51:58;14.57;;;10.52;;
68614;SDS011;55593;51.994;5.882;2022-12-26T07:54:28;16.48;;;11.25;;
68614;SDS011;55593;51.994;5.882;2022-12-26T07:56:58;16.23;;;10.52;;
68614;SDS011;55593;51.994;5.882;2022-12-26T07:59:29;19.55;;;10.23;;
68614;SDS011;55593;51.994;5.882;2022-12-26T08:01:59;16.13;;;10.38;;
68614;SDS011;55593;51.994;5.882;2022-12-26T08:04:29;15.48;;;11.68;;
68614;SDS011;55593;51.994;5.882;2022-12-26T08:06:59;15.88;;;9.68;;
68614;SDS011;55593;51.994;5.882;2022-12-26T08:09:28;12.73;;;9.13;;
68614;SDS011;55593;51.994;5.882;2022-12-26T08:11:57;14.50;;;10.20;;
68614;SDS011;55593;51.994;5.882;2022-12-26T08:14:26;16.00;;;9.13;;
68614;SDS011;55593;51.994;5.882;2022-12-26T08:16:58;16.33;;;10.70;;
68614;SDS011;55593;51.994;5.882;2022-12-26T08:19:27;13.80;;;8.57;;
68614;SDS011;55593;51.994;5.882;2022-12-26T08:21:56;13.52;;;8.15;;
68614;SDS011;55593;51.994;5.882;2022-12-26T08:24:26;11.85;;;7.40;;
68614;SDS011;55593;51.994;5.882;2022-12-26T08:26:55;12.07;;;7.53;;
68614;SDS011;55593;51.994;5.882;2022-12-26T08:29:24;11.27;;;7.03;;
68614;SDS011;55593;51.994;5.882;2022-12-26T08:31:53;14.00;;;7.18;;
68614;SDS011;55593;51.994;5.882;2022-12-26T08:34:25;10.93;;;6.75;;
68614;SDS011;55593;51.994;5.882;2022-12-26T08:36:59;14.82;;;6.95;;
68614;SDS011;55593;51.994;5.882;2022-12-26T08:39:29;12.90;;;6.13;;
68614;SDS011;55593;51.994;5.882;2022-12-26T08:41:58;11.57;;;6.25;;
68614;SDS011;55593;51.994;5.882;2022-12-26T08:44:27;13.98;;;6.43;;
68614;SDS011;55593;51.994;5.882;2022-12-26T08:46:56;9.32;;;5.75;;
68614;SDS011;55593;51.994;5.882;2022-12-26T08:49:28;8.93;;;5.38;;
68614;SDS011;55593;51.994;5.882;2022-12-26T08:51:57;8.98;;;6.00;;
68614;SDS011;55593;51.994;5.882;2022-12-26T08:54:26;14.32;;;5.13;;
68614;SDS011;55593;51.994;5.882;2022-12-26T08:56:55;10.90;;;5.25;;
68614;SDS011;55593;51.994;5.882;2022-12-26T08:59:24;11.23;;;5.00;;
68614;SDS011;55593;51.994;5.882;2022-12-26T09:01:54;10.15;;;5.00;;
68614;SDS011;55593;51.994;5.882;2022-12-26T09:04:23;10.85;;;4.82;;
68614;SDS011;55593;51.994;5.882;2022-12-26T09:06:55;13.60;;;4.85;;
68614;SDS011;55593;51.994;5.882;2022-12-26T09:09:24;11.48;;;4.90;;
68614;SDS011;55593;51.994;5.882;2022-12-26T09:11:53;8.88;;;4.70;;
68614;SDS011;55593;51.994;5.882;2022-12-26T09:14:22;6.78;;;4.40;;
68614;SDS011;55593;51.994;5.882;2022-12-26T09:16:51;9.13;;;4.65;;
68614;SDS011;55593;51.994;5.882;2022-12-26T09:19:20;9.95;;;4.60;;
68614;SDS011;55593;51.994;5.882;2022-12-26T09:21:57;12.25;;;4.18;;
68614;SDS011;55593;51.994;5.882;2022-12-26T09:24:38;10.23;;;4.20;;
68614;SDS011;55593;51.994;5.882;2022-12-26T09:27:08;10.35;;;4.38;;
68614;SDS011;55593;51.994;5.882;2022-12-26T09:29:37;8.13;;;5.68;;
68614;SDS011;55593;51.994;5.882;2022-12-26T09:32:07;12.43;;;4.90;;
68614;SDS011;55593;51.994;5.882;2022-12-26T09:34:36;8.18;;;4.30;;
68614;SDS011;55593;51.994;5.882;2022-12-26T09:37:08;9.98;;;4.80;;
68614;SDS011;55593;51.994;5.882;2022-12-26T09:39:37;10.52;;;3.78;;
68614;SDS011;55593;51.994;5.882;2022-12-26T09:42:07;12.80;;;4.03;;
68614;SDS011;55593;51.994;5.882;2022-12-26T09:44:47;9.75;;;4.10;;
68614;SDS011;55593;51.994;5.882;2022-12-26T09:47:24;11.35;;;4.30;;
68614;SDS011;55593;51.994;5.882;2022-12-26T09:50:03;11.52;;;4.30;;
68614;SDS011;55593;51.994;5.882;2022-12-26T09:52:39;8.43;;;4.18;;
68614;SDS011;55593;51.994;5.882;2022-12-26T09:55:16;10.77;;;3.87;;
68614;SDS011;55593;51.994;5.882;2022-12-26T09:57:56;10.85;;;4.40;;
68614;SDS011;55593;51.994;5.882;2022-12-26T10:00:27;12.90;;;5.22;;
68614;SDS011;55593;51.994;5.882;2022-12-26T10:02:59;14.20;;;4.45;;
68614;SDS011;55593;51.994;5.882;2022-12-26T10:05:29;16.92;;;5.60;;
68614;SDS011;55593;51.994;5.882;2022-12-26T10:08:07;13.10;;;5.47;;
68614;SDS011;55593;51.994;5.882;2022-12-26T10:10:48;12.02;;;4.43;;
68614;SDS011;55593;51.994;5.882;2022-12-26T10:13:24;9.40;;;4.20;;
68614;SDS011;55593;51.994;5.882;2022-12-26T10:15:58;10.10;;;3.15;;
68614;SDS011;55593;51.994;5.882;2022-12-26T10:18:33;10.30;;;3.67;;
68614;SDS011;55593;51.994;5.882;2022-12-26T10:21:13;11.00;;;3.17;;
68614;SDS011;55593;51.994;5.882;2022-12-26T10:23:53;10.20;;;3.33;;
68614;SDS011;55593;51.994;5.882;2022-12-26T10:26:26;10.13;;;3.20;;
68614;SDS011;55593;51.994;5.882;2022-12-26T10:29:00;10.18;;;3.10;;
68614;SDS011;55593;51.994;5.882;2022-12-26T10:31:34;12.73;;;4.32;;
68614;SDS011;55593;51.994;5.882;2022-12-26T10:34:07;12.05;;;3.47;;
68614;SDS011;55593;51.994;5.882;2022-12-26T10:36:44;12.23;;;3.65;;
68614;SDS011;55593;51.994;5.882;2022-12-26T10:39:19;16.20;;;4.85;;
68614;SDS011;55593;51.994;5.882;2022-12-26T10:41:51;13.75;;;3.30;;
68614;SDS011;55593;51.994;5.882;2022-12-26T10:44:22;20.20;;;4.10;;
68614;SDS011;55593;51.994;5.882;2022-12-26T10:46:57;9.43;;;3.75;;
68614;SDS011;55593;51.994;5.882;2022-12-26T10:49:31;12.40;;;3.75;;
68614;SDS011;55593;51.994;5.882;2022-12-26T10:52:00;21.83;;;4.80;;
68614;SDS011;55593;51.994;5.882;2022-12-26T10:54:33;17.05;;;3.13;;
68614;SDS011;55593;51.994;5.882;2022-12-26T10:57:03;14.27;;;2.85;;
68614;SDS011;55593;51.994;5.882;2022-12-26T10:59:35;14.70;;;2.53;;
68614;SDS011;55593;51.994;5.882;2022-12-26T11:02:12;15.18;;;3.53;;
68614;SDS011;55593;51.994;5.882;2022-12-26T11:07:36;18.17;;;2.72;;
68614;SDS011;55593;51.994;5.882;2022-12-26T11:10:13;20.40;;;3.45;;
68614;SDS011;55593;51.994;5.882;2022-12-26T11:12:46;15.05;;;3.72;;
68614;SDS011;55593;51.994;5.882;2022-12-26T11:15:17;17.77;;;3.20;;
68614;SDS011;55593;51.994;5.882;2022-12-26T11:17:50;16.23;;;3.25;;
68614;SDS011;55593;51.994;5.882;2022-12-26T11:20:21;19.02;;;2.85;;
68614;SDS011;55593;51.994;5.882;2022-12-26T11:22:53;20.13;;;3.00;;
68614;SDS011;55593;51.994;5.882;2022-12-26T11:25:25;10.75;;;2.97;;
68614;SDS011;55593;51.994;5.882;2022-12-26T11:27:57;9.90;;;2.20;;
68614;SDS011;55593;51.994;5.882;2022-12-26T11:30:27;14.13;;;2.65;;
68614;SDS011;55593;51.994;5.882;2022-12-26T11:33:03;15.40;;;2.70;;
68614;SDS011;55593;51.994;5.882;2022-12-26T11:35:34;13.13;;;2.40;;
68614;SDS011;55593;51.994;5.882;2022-12-26T11:38:05;18.30;;;3.90;;
68614;SDS011;55593;51.994;5.882;2022-12-26T11:40:45;15.35;;;2.85;;
68614;SDS011;55593;51.994;5.882;2022-12-26T11:43:37;16.73;;;2.60;;
68614;SDS011;55593;51.994;5.882;2022-12-26T11:46:06;11.50;;;3.10;;
68614;SDS011;55593;51.994;5.882;2022-12-26T11:48:35;12.45;;;2.67;;
68614;SDS011;55593;51.994;5.882;2022-12-26T11:51:04;14.60;;;2.60;;
68614;SDS011;55593;51.994;5.882;2022-12-26T11:53:33;11.38;;;2.38;;
68614;SDS011;55593;51.994;5.882;2022-12-26T11:56:06;14.95;;;2.50;;
68614;SDS011;55593;51.994;5.882;2022-12-26T11:58:35;12.68;;;2.05;;
68614;SDS011;55593;51.994;5.882;2022-12-26T12:01:05;11.93;;;2.28;;
68614;SDS011;55593;51.994;5.882;2022-12-26T12:03:41;11.07;;;2.38;;
68614;SDS011;55593;51.994;5.882;2022-12-26T12:06:21;8.95;;;2.42;;
68614;SDS011;55593;51.994;5.882;2022-12-26T12:09:03;10.55;;;2.08;;
68614;SDS011;55593;51.994;5.882;2022-12-26T12:11:40;10.60;;;2.10;;
68614;SDS011;55593;51.994;5.882;2022-12-26T12:14:20;11.73;;;1.92;;
68614;SDS011;55593;51.994;5.882;2022-12-26T12:17:00;10.07;;;1.90;;
68614;SDS011;55593;51.994;5.882;2022-12-26T12:19:41;7.60;;;1.90;;
68614;SDS011;55593;51.994;5.882;2022-12-26T12:25:25;7.45;;;1.77;;
68614;SDS011;55593;51.994;5.882;2022-12-26T12:28:06;10.88;;;1.90;;
68614;SDS011;55593;51.994;5.882;2022-12-26T12:30:47;11.48;;;2.15;;
68614;SDS011;55593;51.994;5.882;2022-12-26T12:33:22;8.13;;;2.00;;
68614;SDS011;55593;51.994;5.882;2022-12-26T12:36:06;12.27;;;2.00;;
68614;SDS011;55593;51.994;5.882;2022-12-26T12:38:44;6.68;;;1.70;;
68614;SDS011;55593;51.994;5.882;2022-12-26T12:44:28;26.70;;;12.10;;
68614;SDS011;55593;51.994;5.882;2022-12-26T12:47:06;12.13;;;2.30;;
68614;SDS011;55593;51.994;5.882;2022-12-26T12:49:45;11.70;;;2.17;;
68614;SDS011;55593;51.994;5.882;2022-12-26T12:52:22;12.38;;;2.10;;
68614;SDS011;55593;51.994;5.882;2022-12-26T12:55:04;10.30;;;2.20;;
68614;SDS011;55593;51.994;5.882;2022-12-26T12:57:45;9.25;;;1.83;;
68614;SDS011;55593;51.994;5.882;2022-12-26T13:00:21;11.05;;;1.95;;
68614;SDS011;55593;51.994;5.882;2022-12-26T13:02:54;9.93;;;1.97;;
68614;SDS011;55593;51.994;5.882;2022-12-26T13:05:28;7.60;;;2.10;;
68614;SDS011;55593;51.994;5.882;2022-12-26T13:08:05;11.50;;;3.45;;
68614;SDS011;55593;51.994;5.882;2022-12-26T13:10:42;11.88;;;3.40;;
68614;SDS011;55593;51.994;5.882;2022-12-26T13:13:17;11.90;;;2.05;;
68614;SDS011;55593;51.994;5.882;2022-12-26T13:15:53;8.60;;;2.83;;
68614;SDS011;55593;51.994;5.882;2022-12-26T13:18:26;10.83;;;2.03;;
68614;SDS011;55593;51.994;5.882;2022-12-26T13:20:59;10.40;;;2.00;;
68614;SDS011;55593;51.994;5.882;2022-12-26T13:23:35;12.70;;;2.50;;
68614;SDS011;55593;51.994;5.882;2022-12-26T13:26:18;14.50;;;2.00;;
68614;SDS011;55593;51.994;5.882;2022-12-26T13:28:53;6.53;;;1.83;;
68614;SDS011;55593;51.994;5.882;2022-12-26T13:31:32;8.15;;;1.88;;
68614;SDS011;55593;51.994;5.882;2022-12-26T13:34:03;9.20;;;1.70;;
68614;SDS011;55593;51.994;5.882;2022-12-26T13:36:38;13.27;;;2.08;;
68614;SDS011;55593;51.994;5.882;2022-12-26T13:39:15;8.60;;;2.30;;
68614;SDS011;55593;51.994;5.882;2022-12-26T13:42:14;4.55;;;1.65;;
68614;SDS011;55593;51.994;5.882;2022-12-26T13:48:02;9.68;;;1.85;;
68614;SDS011;55593;51.994;5.882;2022-12-26T13:51:07;5.88;;;1.50;;
68614;SDS011;55593;51.994;5.882;2022-12-26T13:54:11;11.30;;;1.88;;
68614;SDS011;55593;51.994;5.882;2022-12-26T13:59:42;9.35;;;2.35;;
68614;SDS011;55593;51.994;5.882;2022-12-26T14:02:30;14.07;;;2.90;;
68614;SDS011;55593;51.994;5.882;2022-12-26T14:05:27;7.30;;;1.90;;
68614;SDS011;55593;51.994;5.882;2022-12-26T14:08:02;6.05;;;1.52;;
68614;SDS011;55593;51.994;5.882;2022-12-26T14:10:37;11.95;;;2.28;;
68614;SDS011;55593;51.994;5.882;2022-12-26T14:13:15;9.63;;;1.95;;
68614;SDS011;55593;51.994;5.882;2022-12-26T14:16:00;8.45;;;3.25;;
68614;SDS011;55593;51.994;5.882;2022-12-26T14:18:38;15.07;;;2.40;;
68614;SDS011;55593;51.994;5.882;2022-12-26T14:21:18;8.95;;;1.80;;
68614;SDS011;55593;51.994;5.882;2022-12-26T14:23:57;9.18;;;2.20;;
68614;SDS011;55593;51.994;5.882;2022-12-26T14:26:33;11.63;;;2.75;;
68614;SDS011;55593;51.994;5.882;2022-12-26T14:29:11;8.05;;;1.70;;
68614;SDS011;55593;51.994;5.882;2022-12-26T14:31:52;11.27;;;2.25;;
68614;SDS011;55593;51.994;5.882;2022-12-26T14:34:33;9.07;;;2.30;;
68614;SDS011;55593;51.994;5.882;2022-12-26T14:37:17;9.02;;;2.30;;
68614;SDS011;55593;51.994;5.882;2022-12-26T14:39:55;11.88;;;3.38;;
68614;SDS011;55593;51.994;5.882;2022-12-26T14:42:30;9.38;;;2.40;;
68614;SDS011;55593;51.994;5.882;2022-12-26T14:54:27;7.88;;;2.20;;
68614;SDS011;55593;51.994;5.882;2022-12-26T15:00:32;14.88;;;3.65;;
68614;SDS011;55593;51.994;5.882;2022-12-26T15:05:47;11.52;;;2.70;;
68614;SDS011;55593;51.994;5.882;2022-12-26T15:08:26;13.80;;;2.80;;
68614;SDS011;55593;51.994;5.882;2022-12-26T15:11:23;9.52;;;1.92;;
68614;SDS011;55593;51.994;5.882;2022-12-26T15:16:57;12.88;;;2.63;;
68614;SDS011;55593;51.994;5.882;2022-12-26T15:22:45;9.43;;;2.95;;
68614;SDS011;55593;51.994;5.882;2022-12-26T15:28:22;18.13;;;2.75;;
68614;SDS011;55593;51.994;5.882;2022-12-26T15:31:25;10.02;;;2.78;;
68614;SDS011;55593;51.994;5.882;2022-12-26T15:33:58;10.25;;;2.17;;
68614;SDS011;55593;51.994;5.882;2022-12-26T15:36:33;12.40;;;2.80;;
68614;SDS011;55593;51.994;5.882;2022-12-26T15:39:14;11.98;;;2.45;;
68614;SDS011;55593;51.994;5.882;2022-12-26T15:41:49;17.15;;;3.08;;
68614;SDS011;55593;51.994;5.882;2022-12-26T15:44:27;12.82;;;5.15;;
68614;SDS011;55593;51.994;5.882;2022-12-26T15:47:02;8.27;;;2.58;;
68614;SDS011;55593;51.994;5.882;2022-12-26T15:49:42;16.13;;;3.03;;
68614;SDS011;55593;51.994;5.882;2022-12-26T15:52:19;15.48;;;2.40;;
68614;SDS011;55593;51.994;5.882;2022-12-26T15:55:05;15.27;;;3.72;;
68614;SDS011;55593;51.994;5.882;2022-12-26T15:57:53;20.42;;;3.90;;
68614;SDS011;55593;51.994;5.882;2022-12-26T16:00:29;8.85;;;2.47;;
68614;SDS011;55593;51.994;5.882;2022-12-26T16:03:05;14.48;;;3.10;;
68614;SDS011;55593;51.994;5.882;2022-12-26T16:05:44;10.80;;;3.60;;